Abraham, Utah
Current Conditions -  °F | °C
As of 12:15 PM on Tuesday 21 Oct 2014 (Local Time) from KDTA Reporting Station
Clear Clear  
Wind Chill: 70°   Ceiling: Unl
Heat Index: 70°   Visibility: 10mi
Dew Point: 39°   Wind: 22mph
Humidity: 32%   Direction: 210°SSW
Pressure: 29.97"   Gusts: 29mph
Location:  39.4463°N, 112.85°W
Report Text: KDTA 211815Z AUTO 21019G25KT 10SM CLR 21/04 A2997 RMK AO1 T02130041
Loading
Personal Weather Stations






























Interactive Weather Map
Tropical Storm Tracking
New forecast layout! Learn more

10-Day Weather Forecast

Advertisements
Track Severe Weather on mobile